Time;durP1;ratioP1;P1;durP2;ratioP2;P2;SDS_P1;SDS_P2;PMS_P1;PMS_P2;Temp;Humidity;BMP_temperature;BMP_pressure;BME280_temperature;BME280_humidity;BME280_pressure;Samples;Min_cycle;Max_cycle;Signal;HPM_P1;HPM_P2
2021/10/06 00:00:37;;;;;;;7.57;1.40;;;;;;;13.50;74.18;100656.06;4888535;29;20134;-69
2021/10/06 00:03:02;;;;;;;8.30;1.60;;;;;;;13.46;74.70;100649.09;4887043;29;20047;-68
2021/10/06 00:05:28;;;;;;;6.43;1.30;;;;;;;13.44;74.68;100666.53;4887482;28;20109;-68
2021/10/06 00:07:53;;;;;;;8.20;1.40;;;;;;;13.37;74.90;100655.22;4877135;29;20031;-68
2021/10/06 00:10:18;;;;;;;8.75;1.40;;;;;;;13.32;75.38;100670.06;4883493;28;20585;-68
2021/10/06 00:12:44;;;;;;;8.02;1.30;;;;;;;13.35;75.23;100672.69;4875023;29;20040;-69
2021/10/06 00:15:11;;;;;;;6.00;1.40;;;;;;;13.35;75.15;100675.31;4879859;29;20075;-69
2021/10/06 00:17:36;;;;;;;6.55;1.20;;;;;;;13.20;75.16;100671.81;4865645;28;20099;-68
2021/10/06 00:20:03;;;;;;;6.65;1.10;;;;;;;13.26;74.90;100666.56;4845586;29;20059;-69
2021/10/06 00:22:28;;;;;;;7.93;1.10;;;;;;;13.18;74.89;100663.94;4866460;28;20052;-69
2021/10/06 00:24:53;;;;;;;7.45;1.00;;;;;;;13.16;75.21;100663.09;4858049;29;20047;-68
2021/10/06 00:27:19;;;;;;;4.72;1.10;;;;;;;13.16;75.23;100662.22;4871836;28;20706;-68
2021/10/06 00:29:44;;;;;;;5.43;1.15;;;;;;;13.11;75.52;100656.97;4863722;29;20547;-69
2021/10/06 00:32:10;;;;;;;8.82;1.27;;;;;;;13.10;75.79;100675.28;4873920;28;20601;-68
2021/10/06 00:34:35;;;;;;;5.30;1.17;;;;;;;13.10;75.78;100667.44;4891127;29;20044;-68
2021/10/06 00:37:00;;;;;;;8.40;1.30;;;;;;;13.07;75.96;100673.53;4881415;29;20529;-68
2021/10/06 00:39:25;;;;;;;8.93;1.50;;;;;;;13.04;75.88;100673.53;4889831;28;20078;-69
2021/10/06 00:41:51;;;;;;;4.47;1.02;;;;;;;13.12;74.91;100676.13;4893112;29;20102;-69
2021/10/06 00:44:18;;;;;;;8.77;1.23;;;;;;;13.14;74.19;100687.50;4876637;28;20150;-69
2021/10/06 00:46:45;;;;;;;7.88;1.13;;;;;;;13.07;74.35;100702.31;4884753;29;20502;-69
2021/10/06 00:49:11;;;;;;;3.95;1.00;;;;;;;13.06;73.90;100694.44;4895174;28;20047;-68
2021/10/06 00:51:38;;;;;;;4.45;0.90;;;;;;;13.04;74.04;100694.47;4891508;29;20535;-68
2021/10/06 00:54:03;;;;;;;4.88;0.95;;;;;;;13.07;73.77;100701.44;4874926;29;20600;-72
2021/10/06 00:56:29;;;;;;;6.50;1.00;;;;;;;13.09;73.74;100716.28;4882221;29;20048;-67
2021/10/06 00:58:54;;;;;;;3.55;0.80;;;;;;;13.08;73.94;100705.81;4886116;29;20052;-68
2021/10/06 01:01:20;;;;;;;5.55;1.00;;;;;;;13.01;73.29;100707.53;4895334;28;20044;-67
2021/10/06 01:03:45;;;;;;;7.25;1.02;;;;;;;13.05;73.49;100704.06;4891399;29;20136;-68
2021/10/06 01:06:11;;;;;;;5.55;1.00;;;;;;;12.94;73.80;100713.63;4885235;28;20119;-68
2021/10/06 01:08:36;;;;;;;5.47;0.98;;;;;;;12.97;74.23;100711.03;4870203;29;20715;-69
2021/10/06 01:11:02;;;;;;;4.20;0.95;;;;;;;12.90;73.98;100710.16;4888247;29;20194;-68
2021/10/06 01:13:28;;;;;;;5.95;1.00;;;;;;;12.96;74.29;100720.63;4888533;29;20100;-68
2021/10/06 01:15:53;;;;;;;4.20;0.80;;;;;;;12.93;74.78;100717.13;4884723;29;20051;-68
2021/10/06 01:18:19;;;;;;;3.22;0.93;;;;;;;12.90;74.14;100712.78;4881594;28;20517;-68
2021/10/06 01:20:44;;;;;;;4.32;0.90;;;;;;;12.92;74.07;100724.13;4889208;28;20047;-68
2021/10/06 01:23:09;;;;;;;4.30;0.80;;;;;;;12.91;73.86;100724.13;4894956;29;20075;-67
2021/10/06 01:25:35;;;;;;;5.75;0.75;;;;;;;12.81;74.57;100715.34;4889103;29;20047;-68
2021/10/06 01:28:01;;;;;;;4.68;0.90;;;;;;;12.83;74.58;100718.84;4885404;29;20051;-68
2021/10/06 01:30:26;;;;;;;5.07;0.88;;;;;;;12.81;74.59;100707.50;4887917;28;20533;-68
2021/10/06 01:32:52;;;;;;;4.65;0.77;;;;;;;12.85;74.46;100708.41;4887481;29;20047;-68
2021/10/06 01:35:17;;;;;;;3.28;0.70;;;;;;;12.79;74.53;100711.88;4895357;28;20501;-68
2021/10/06 01:37:44;;;;;;;7.65;1.10;;;;;;;12.85;74.18;100711.91;4888870;29;20536;-68
2021/10/06 01:40:22;;;;;;;6.05;0.90;;;;;;;12.85;74.24;100706.66;4882990;29;20039;-67
2021/10/06 01:42:49;;;;;;;5.95;0.93;;;;;;;12.92;74.05;100711.03;4887422;28;20051;-68
2021/10/06 01:45:23;;;;;;;7.32;1.00;;;;;;;12.83;74.29;100702.28;4886403;29;20103;-69
2021/10/06 01:47:48;;;;;;;9.00;0.88;;;;;;;12.89;74.05;100705.78;4874198;29;20107;-67
2021/10/06 01:50:21;;;;;;;6.82;0.90;;;;;;;12.91;74.29;100716.25;4884334;29;20035;-69
2021/10/06 01:52:47;;;;;;;7.75;0.90;;;;;;;12.86;74.33;100711.03;4889022;28;20056;-69
2021/10/06 01:55:12;;;;;;;4.40;0.90;;;;;;;12.86;74.18;100718.88;4885720;29;20119;-69
2021/10/06 01:57:37;;;;;;;5.88;0.80;;;;;;;12.91;74.09;100724.13;4874620;29;20044;-68
2021/10/06 02:00:04;;;;;;;4.00;0.70;;;;;;;12.79;74.82;100721.47;4885254;28;20062;-68
2021/10/06 02:02:29;;;;;;;3.90;0.82;;;;;;;12.71;75.08;100705.75;4894009;29;20031;-68
2021/10/06 02:04:54;;;;;;;5.75;1.10;;;;;;;12.61;75.54;100711.84;4889910;28;20050;-69
2021/10/06 02:07:20;;;;;;;7.45;0.82;;;;;;;12.64;75.30;100726.66;4888589;28;20051;-69
2021/10/06 02:09:45;;;;;;;5.53;1.00;;;;;;;12.57;75.36;100717.91;4889503;28;20429;-68
2021/10/06 02:12:10;;;;;;;8.73;0.80;;;;;;;12.49;75.31;100724.88;4881194;29;20184;-68
2021/10/06 02:14:36;;;;;;;5.18;0.93;;;;;;;12.59;75.60;100713.56;4892076;29;20139;-70
2021/10/06 02:17:02;;;;;;;4.88;0.90;;;;;;;12.55;75.35;100715.31;4888805;29;20079;-68
2021/10/06 02:19:27;;;;;;;4.47;0.90;;;;;;;12.58;75.09;100717.94;4892928;29;20620;-68
2021/10/06 02:21:53;;;;;;;5.15;0.70;;;;;;;12.55;75.87;100717.06;4893744;28;20087;-68
2021/10/06 02:24:18;;;;;;;8.55;0.70;;;;;;;12.52;75.36;100717.91;4877062;29;20044;-68
2021/10/06 02:26:43;;;;;;;7.65;0.80;;;;;;;12.51;75.54;100716.16;4893301;29;20064;-68
2021/10/06 02:29:09;;;;;;;5.72;0.70;;;;;;;12.53;75.57;100713.56;4885500;28;20130;-68
2021/10/06 02:31:34;;;;;;;8.55;0.90;;;;;;;12.50;75.50;100727.47;4894503;29;20355;-68
2021/10/06 02:34:00;;;;;;;8.15;1.00;;;;;;;12.52;75.69;100719.66;4889925;28;20075;-68
2021/10/06 02:36:26;;;;;;;5.47;0.90;;;;;;;12.51;75.89;100723.13;4884390;29;20055;-69
2021/10/06 02:38:51;;;;;;;5.90;0.90;;;;;;;12.52;75.89;100724.88;4892159;28;20043;-69
2021/10/06 02:41:17;;;;;;;5.80;1.23;;;;;;;12.53;76.30;100721.41;4890211;29;20528;-69
2021/10/06 02:43:42;;;;;;;4.88;0.90;;;;;;;12.50;76.60;100724.03;4889190;29;20046;-69
2021/10/06 02:46:07;;;;;;;9.80;1.08;;;;;;;12.44;76.77;100724.00;4877998;28;20052;-70
2021/10/06 02:48:33;;;;;;;7.82;0.80;;;;;;;12.45;76.54;100726.59;4885685;29;20044;-68
2021/10/06 02:50:58;;;;;;;5.30;0.80;;;;;;;12.42;76.60;100721.38;4890272;28;20059;-70
2021/10/06 02:53:23;;;;;;;5.35;1.00;;;;;;;12.32;76.50;100711.72;4874699;29;20052;-69
2021/10/06 02:55:49;;;;;;;8.13;0.88;;;;;;;12.39;76.17;100717.84;4894473;29;20048;-70
2021/10/06 02:58:15;;;;;;;5.18;1.15;;;;;;;12.39;76.12;100718.75;4876148;28;20066;-70
2021/10/06 03:00:40;;;;;;;7.20;1.00;;;;;;;12.34;76.60;100723.09;4891132;29;20146;-69
2021/10/06 03:03:06;;;;;;;8.35;0.90;;;;;;;12.33;76.55;100723.94;4886681;29;20126;-69
2021/10/06 03:05:31;;;;;;;7.22;0.90;;;;;;;12.35;76.59;100721.34;4891248;29;20490;-69
2021/10/06 03:07:57;;;;;;;3.65;0.82;;;;;;;12.43;76.21;100723.13;4885386;28;20056;-70
2021/10/06 03:10:22;;;;;;;7.35;0.90;;;;;;;12.37;76.66;100710.03;4881009;28;20163;-68
2021/10/06 03:12:47;;;;;;;5.72;1.00;;;;;;;12.37;76.42;100709.16;4888845;29;20476;-70
2021/10/06 03:15:13;;;;;;;5.75;0.88;;;;;;;12.34;76.82;100716.97;4880756;28;20055;-69
2021/10/06 03:17:38;;;;;;;6.10;0.90;;;;;;;12.31;76.89;100711.75;4889266;29;20047;-69
2021/10/06 03:20:09;;;;;;;6.57;1.00;;;;;;;12.25;77.10;100709.13;4888997;28;20048;-68
2021/10/06 03:22:34;;;;;;;5.70;1.00;;;;;;;12.21;77.37;100705.59;4891068;29;20097;-69
2021/10/06 03:25:00;;;;;;;6.10;0.90;;;;;;;12.19;77.17;100704.75;4888453;28;20063;-67
2021/10/06 03:27:25;;;;;;;6.22;0.90;;;;;;;12.24;77.07;100697.78;4867921;29;20727;-68
2021/10/06 03:29:50;;;;;;;5.70;0.70;;;;;;;12.17;77.34;100709.06;4891482;28;20048;-68
2021/10/06 03:32:16;;;;;;;7.88;1.08;;;;;;;12.18;77.17;100695.16;4879057;28;20048;-68
2021/10/06 03:34:41;;;;;;;8.40;1.25;;;;;;;12.15;77.36;100696.00;4892294;28;20103;-69
2021/10/06 03:37:07;;;;;;;8.82;1.05;;;;;;;12.18;77.66;100700.38;4887321;29;20798;-69
2021/10/06 03:39:32;;;;;;;6.07;0.90;;;;;;;12.20;77.17;100701.22;4873732;29;20040;-67
2021/10/06 03:41:58;;;;;;;10.93;1.13;;;;;;;12.18;77.49;100703.88;4893242;28;20106;-67
2021/10/06 03:44:23;;;;;;;9.63;1.00;;;;;;;12.18;77.41;100710.81;4878112;28;20046;-68
2021/10/06 03:46:48;;;;;;;9.90;1.00;;;;;;;12.19;77.37;100699.50;4890088;28;20122;-69
2021/10/06 03:49:14;;;;;;;6.72;0.85;;;;;;;12.11;77.77;100695.97;4890543;28;20893;-69
2021/10/06 03:51:39;;;;;;;13.48;1.10;;;;;;;12.14;77.46;100693.38;4884327;29;20052;-69
2021/10/06 03:54:04;;;;;;;7.00;1.05;;;;;;;12.19;77.87;100699.50;4879972;28;20131;-69
2021/10/06 03:56:30;;;;;;;6.53;1.15;;;;;;;12.29;77.71;100700.41;4885705;28;20721;-70
2021/10/06 03:58:55;;;;;;;8.13;1.10;;;;;;;12.30;77.88;100702.16;4894632;29;20054;-69
2021/10/06 04:01:20;;;;;;;5.43;0.90;;;;;;;12.31;78.13;100696.06;4882150;28;20110;-68
2021/10/06 04:03:46;;;;;;;5.80;1.00;;;;;;;12.34;78.12;100680.38;4883672;28;20039;-68
2021/10/06 04:06:11;;;;;;;8.68;1.17;;;;;;;12.29;78.09;100677.75;4878204;28;20047;-68
2021/10/06 04:08:36;;;;;;;6.50;1.10;;;;;;;12.33;78.19;100678.63;4888590;29;20096;-68
2021/10/06 04:11:02;;;;;;;13.93;1.58;;;;;;;12.37;78.20;100683.91;4890660;28;20115;-68
2021/10/06 04:13:27;;;;;;;10.95;1.52;;;;;;;12.21;78.86;100671.63;4882366;29;20051;-67
2021/10/06 04:15:53;;;;;;;13.88;1.70;;;;;;;12.43;78.41;100665.59;4893887;29;20043;-68
2021/10/06 04:18:18;;;;;;;5.85;1.55;;;;;;;12.51;78.15;100673.44;4880303;28;20040;-68
2021/10/06 04:20:44;;;;;;;10.35;1.70;;;;;;;12.54;78.29;100676.97;4887908;29;20544;-68
2021/10/06 04:23:09;;;;;;;12.32;2.05;;;;;;;12.52;78.93;100668.22;4889219;28;20134;-68
2021/10/06 04:25:34;;;;;;;21.00;2.55;;;;;;;12.68;78.87;100679.63;4887109;29;20566;-69
2021/10/06 04:28:01;;;;;;;13.48;1.85;;;;;;;12.72;78.99;100675.25;4889691;29;20135;-69
2021/10/06 04:30:26;;;;;;;11.77;1.55;;;;;;;12.82;79.02;100677.88;4877787;28;20051;-69
2021/10/06 04:32:51;;;;;;;9.63;1.50;;;;;;;12.83;78.81;100666.53;4893191;29;20043;-69
2021/10/06 04:35:17;;;;;;;11.57;1.50;;;;;;;12.95;78.75;100683.97;4890267;28;20070;-69
2021/10/06 04:37:42;;;;;;;9.95;1.80;;;;;;;13.01;78.54;100679.63;4885104;29;20057;-68
2021/10/06 04:40:08;;;;;;;9.32;1.40;;;;;;;13.00;78.78;100675.25;4883816;28;20048;-68
2021/10/06 04:42:34;;;;;;;13.15;1.50;;;;;;;13.01;78.88;100682.25;4882090;29;20048;-69
2021/10/06 04:44:59;;;;;;;11.73;1.50;;;;;;;13.04;78.66;100678.78;4887875;29;20486;-68
2021/10/06 04:47:25;;;;;;;11.60;1.52;;;;;;;13.10;78.30;100681.38;4887625;28;20651;-68
2021/10/06 04:49:50;;;;;;;10.15;1.42;;;;;;;13.03;78.42;100695.34;4888852;29;20050;-69
2021/10/06 04:52:16;;;;;;;10.20;1.30;;;;;;;13.16;78.18;100681.41;4876538;28;20083;-68
2021/10/06 04:54:41;;;;;;;14.32;1.67;;;;;;;13.24;78.04;100703.22;4886787;29;20062;-68
2021/10/06 04:57:06;;;;;;;12.15;1.55;;;;;;;13.18;78.16;100695.34;4890070;29;20047;-69
2021/10/06 04:59:32;;;;;;;9.15;1.60;;;;;;;13.28;78.08;100704.09;4880590;29;20075;-68
2021/10/06 05:01:58;;;;;;;8.27;1.60;;;;;;;13.23;78.49;100700.63;4888093;29;20556;-68
2021/10/06 05:04:24;;;;;;;10.88;1.90;;;;;;;13.30;77.95;100702.34;4879841;28;20636;-69
2021/10/06 05:06:50;;;;;;;9.05;1.60;;;;;;;13.35;77.90;100713.72;4888576;29;20048;-69
2021/10/06 05:09:17;;;;;;;14.07;2.00;;;;;;;13.36;77.78;100716.28;4889248;28;20758;-67
2021/10/06 05:11:43;;;;;;;15.65;2.30;;;;;;;13.28;78.17;100712.84;4890864;29;20054;-70
2021/10/06 05:14:08;;;;;;;9.50;2.13;;;;;;;13.37;77.62;100725.03;4865074;29;20028;-67
2021/10/06 05:16:33;;;;;;;15.05;2.22;;;;;;;13.45;77.65;100731.16;4887060;28;20135;-68
2021/10/06 05:18:59;;;;;;;14.68;2.42;;;;;;;13.47;77.38;100732.03;4891889;29;20071;-68
2021/10/06 05:21:24;;;;;;;12.45;2.38;;;;;;;13.43;77.65;100737.25;4888498;29;20128;-68
2021/10/06 05:23:49;;;;;;;10.73;2.30;;;;;;;13.43;77.75;100745.97;4888915;29;20347;-70
2021/10/06 05:26:15;;;;;;;17.13;2.45;;;;;;;13.46;77.58;100747.72;4887240;29;20217;-68
2021/10/06 05:28:40;;;;;;;15.50;2.75;;;;;;;13.33;77.95;100747.75;4884001;29;20078;-69
2021/10/06 05:31:06;;;;;;;12.90;2.30;;;;;;;13.43;77.64;100745.09;4886780;29;20071;-68
2021/10/06 05:33:31;;;;;;;11.50;2.40;;;;;;;13.39;77.44;100739.88;4889051;28;21203;-69
2021/10/06 05:35:57;;;;;;;13.98;2.55;;;;;;;13.40;77.35;100752.09;4887645;29;20119;-69
2021/10/06 05:38:22;;;;;;;12.75;1.98;;;;;;;13.37;77.38;100745.97;4874287;28;20842;-69
2021/10/06 05:40:48;;;;;;;16.40;2.30;;;;;;;13.34;77.44;100759.97;4888180;29;20043;-67
2021/10/06 05:43:13;;;;;;;13.73;2.55;;;;;;;13.43;77.13;100755.56;4887564;28;20772;-69
2021/10/06 05:45:40;;;;;;;10.75;2.20;;;;;;;13.46;77.11;100764.31;4886616;29;20050;-69
2021/10/06 05:48:06;;;;;;;12.00;2.30;;;;;;;13.40;77.40;100759.97;4883955;29;20389;-69
2021/10/06 05:50:31;;;;;;;14.65;2.30;;;;;;;13.38;77.35;100756.47;4888729;28;20044;-68
2021/10/06 05:52:58;;;;;;;14.07;2.53;;;;;;;13.34;77.42;100766.94;4891270;29;20545;-68
2021/10/06 05:55:24;;;;;;;10.55;2.15;;;;;;;13.38;77.47;100766.94;4889194;28;20119;-69
2021/10/06 05:57:49;;;;;;;9.93;1.92;;;;;;;13.35;77.05;100780.03;4890685;29;20420;-69
2021/10/06 06:00:15;;;;;;;12.23;2.30;;;;;;;13.39;77.18;100776.53;4884553;29;20047;-70
2021/10/06 06:02:47;;;;;;;14.40;2.20;;;;;;;13.33;77.48;100780.91;4892391;28;20047;-70
2021/10/06 06:05:13;;;;;;;9.13;2.17;;;;;;;13.37;77.11;100787.88;4887240;29;20043;-70
2021/10/06 06:07:39;;;;;;;12.80;1.90;;;;;;;13.42;77.14;100790.53;4887434;28;20036;-67
2021/10/06 06:10:05;;;;;;;10.60;2.05;;;;;;;13.38;77.17;100795.75;4884992;29;21057;-69
2021/10/06 06:12:30;;;;;;;9.00;1.95;;;;;;;13.32;77.59;100808.81;4891109;28;20517;-70
2021/10/06 06:14:56;;;;;;;9.70;1.98;;;;;;;13.33;77.92;100799.22;4888466;29;20471;-69
2021/10/06 06:17:21;;;;;;;8.93;1.83;;;;;;;13.30;77.92;100799.22;4897620;29;20592;-69
2021/10/06 06:19:46;;;;;;;7.28;1.67;;;;;;;13.30;77.68;100793.97;4884537;28;20504;-70
2021/10/06 06:22:12;;;;;;;11.00;1.60;;;;;;;13.33;77.68;100804.47;4881416;29;20142;-70
2021/10/06 06:24:37;;;;;;;11.32;1.85;;;;;;;13.28;77.85;100809.69;4871411;29;20036;-70
2021/10/06 06:27:03;;;;;;;13.60;1.98;;;;;;;13.35;77.61;100815.81;4887310;29;20047;-69
2021/10/06 06:29:29;;;;;;;11.35;1.80;;;;;;;13.27;78.10;100805.34;4879620;28;20114;-70
2021/10/06 06:31:56;;;;;;;5.72;1.60;;;;;;;13.35;77.86;100813.22;4868102;29;20170;-69
2021/10/06 06:34:22;;;;;;;8.77;1.70;;;;;;;13.39;77.82;100813.19;4880224;29;20159;-68
2021/10/06 06:36:48;;;;;;;8.45;1.77;;;;;;;13.32;78.32;100824.53;4884201;28;20123;-71
2021/10/06 06:39:14;;;;;;;10.88;1.67;;;;;;;13.41;78.06;100823.69;4888574;29;20054;-69
2021/10/06 06:41:39;;;;;;;7.88;1.58;;;;;;;13.45;77.98;100832.41;4891699;28;20061;-70
2021/10/06 06:44:04;;;;;;;11.38;1.50;;;;;;;13.47;78.03;100828.94;4880244;29;20040;-69
2021/10/06 06:46:30;;;;;;;8.60;1.58;;;;;;;13.40;78.40;100835.91;4879461;29;20568;-71
2021/10/06 06:48:55;;;;;;;9.27;1.80;;;;;;;13.58;78.09;100837.66;4881202;28;20528;-70
2021/10/06 06:51:22;;;;;;;12.10;1.80;;;;;;;13.62;78.07;100844.63;4891697;29;20102;-71
2021/10/06 06:53:47;;;;;;;11.10;2.03;;;;;;;13.72;77.97;100848.16;4890987;28;20048;-71
2021/10/06 06:56:13;;;;;;;13.70;2.30;;;;;;;13.76;77.95;100850.75;4877013;29;20047;-71
2021/10/06 06:58:38;;;;;;;12.82;2.60;;;;;;;13.68;78.02;100846.38;4893681;28;20043;-69
2021/10/06 07:01:03;;;;;;;11.35;1.88;;;;;;;13.69;78.21;100856.00;4881582;29;20142;-70
2021/10/06 07:03:29;;;;;;;8.93;1.80;;;;;;;13.81;77.57;100853.38;4896336;29;20050;-71
2021/10/06 07:05:55;;;;;;;10.80;2.15;;;;;;;13.75;77.82;100866.47;4868975;28;20510;-71
2021/10/06 07:08:21;;;;;;;14.13;2.33;;;;;;;13.82;77.72;100874.34;4869723;29;20436;-72
2021/10/06 07:10:47;;;;;;;9.18;2.30;;;;;;;13.73;78.29;100873.44;4858271;29;20126;-71
2021/10/06 07:13:12;;;;;;;15.55;2.60;;;;;;;13.84;78.09;100876.97;4890473;29;20139;-73
2021/10/06 07:15:38;;;;;;;10.10;2.33;;;;;;;13.93;77.81;100883.94;4892127;28;20572;-71
2021/10/06 07:18:03;;;;;;;9.90;1.80;;;;;;;13.71;77.61;100904.91;4878993;29;20056;-71
2021/10/06 07:20:29;;;;;;;8.10;1.60;;;;;;;13.63;76.52;100924.97;4877946;29;20599;-71
2021/10/06 07:22:55;;;;;;;6.38;1.25;;;;;;;13.35;76.35;100931.91;4889073;29;20130;-72
2021/10/06 07:25:23;;;;;;;9.07;1.30;;;;;;;13.23;76.33;100938.84;4873942;29;20480;-72
2021/10/06 07:27:48;;;;;;;11.90;1.40;;;;;;;13.07;76.12;100924.78;4872717;29;20130;-73
2021/10/06 07:30:14;;;;;;;4.57;0.80;;;;;;;12.91;76.68;100923.84;4877644;29;20179;-72
2021/10/06 07:32:40;;;;;;;5.20;1.00;;;;;;;12.80;76.24;100914.19;4864633;28;20054;-73
2021/10/06 07:35:06;;;;;;;3.33;0.80;;;;;;;12.77;76.68;100909.81;4886333;29;20098;-74
2021/10/06 07:37:32;;;;;;;4.28;0.90;;;;;;;12.77;77.05;100919.41;4895723;29;20098;-74
2021/10/06 07:39:57;;;;;;;7.80;1.17;;;;;;;12.76;77.45;100915.91;4850299;29;20039;-71
2021/10/06 07:42:23;;;;;;;7.43;1.80;;;;;;;12.84;78.12;100924.69;4878136;29;20048;-71
2021/10/06 07:44:48;;;;;;;11.23;2.05;;;;;;;13.04;78.09;100914.31;4891533;28;20046;-73
2021/10/06 07:47:14;;;;;;;12.35;2.30;;;;;;;13.14;79.01;100929.19;4886906;29;20390;-74
2021/10/06 07:49:43;;;;;;;19.75;3.03;;;;;;;13.20;79.76;100926.59;4897253;29;20060;-73
2021/10/06 07:52:10;;;;;;;20.95;3.10;;;;;;;13.30;79.98;100928.38;4859496;29;20043;-73
2021/10/06 07:54:37;;;;;;;18.70;3.08;;;;;;;13.44;79.89;100936.28;4885722;29;20463;-74
2021/10/06 07:57:03;;;;;;;17.20;3.08;;;;;;;13.59;79.37;100911.88;4885726;28;20040;-72
2021/10/06 07:59:28;;;;;;;16.77;2.78;;;;;;;13.61;79.34;100921.47;4885749;29;20046;-72
2021/10/06 08:01:53;;;;;;;18.52;3.05;;;;;;;13.64;79.28;100931.09;4882060;29;20580;-73
2021/10/06 08:04:19;;;;;;;11.10;2.30;;;;;;;13.72;79.09;100942.47;4870642;29;20553;-71
2021/10/06 08:06:44;;;;;;;12.57;2.42;;;;;;;13.65;79.27;100948.56;4889997;29;20959;-69
2021/10/06 08:09:09;;;;;;;19.30;3.28;;;;;;;13.75;79.14;100951.19;4884783;28;20070;-73
2021/10/06 08:11:35;;;;;;;11.77;2.35;;;;;;;13.82;78.92;100944.22;4889022;29;20094;-73
2021/10/06 08:14:02;;;;;;;15.68;2.72;;;;;;;13.74;78.98;100948.56;4884366;28;20074;-74
2021/10/06 08:16:27;;;;;;;12.48;2.65;;;;;;;13.80;78.92;100954.69;4888041;29;20103;-76
2021/10/06 08:18:53;;;;;;;15.48;2.72;;;;;;;13.76;78.76;100967.78;4888351;28;20580;-73
2021/10/06 08:21:19;;;;;;;15.75;3.10;;;;;;;13.78;78.86;100966.91;4890027;29;20051;-72
2021/10/06 08:23:44;;;;;;;13.13;2.75;;;;;;;13.79;78.75;100973.03;4891583;29;20110;-73
2021/10/06 08:26:10;;;;;;;15.75;2.80;;;;;;;13.84;78.82;100967.81;4876197;28;20074;-72
2021/10/06 08:28:35;;;;;;;18.40;3.10;;;;;;;13.66;79.44;100987.84;4883694;29;20155;-71
2021/10/06 08:31:00;;;;;;;21.33;3.53;;;;;;;13.80;79.65;101006.22;4879654;28;20044;-73
2021/10/06 08:33:26;;;;;;;22.85;3.80;;;;;;;13.76;80.21;100989.63;4884862;29;20118;-72
2021/10/06 08:35:51;;;;;;;26.65;3.95;;;;;;;13.90;79.71;100978.31;4884877;29;20170;-72
2021/10/06 08:38:17;;;;;;;18.33;3.55;;;;;;;14.04;79.34;100992.28;4880274;28;20052;-71
2021/10/06 08:40:43;;;;;;;19.08;3.55;;;;;;;13.95;79.56;100990.53;4883109;29;20040;-71
2021/10/06 08:43:09;;;;;;;23.77;3.65;;;;;;;14.04;79.36;101000.16;4885249;28;20065;-72
2021/10/06 08:45:36;;;;;;;25.02;3.92;;;;;;;14.02;79.58;101007.16;4889434;29;20087;-70
2021/10/06 08:48:03;;;;;;;24.02;3.72;;;;;;;14.14;79.44;101009.78;4881061;28;20055;-70
2021/10/06 08:50:28;;;;;;;23.40;3.67;;;;;;;14.21;79.55;101019.38;4886548;29;20059;-70
2021/10/06 08:52:54;;;;;;;16.20;3.65;;;;;;;14.37;79.56;101028.16;4888222;29;20047;-70
2021/10/06 08:55:30;;;;;;;20.20;3.58;;;;;;;14.47;79.60;101025.56;4891572;29;20114;-71
2021/10/06 08:58:02;;;;;;;16.83;3.20;;;;;;;14.58;79.37;101033.41;4887129;29;20501;-71
2021/10/06 09:00:29;;;;;;;21.05;3.00;;;;;;;14.57;78.94;101048.31;4886293;28;20704;-70
2021/10/06 09:02:54;;;;;;;20.08;2.95;;;;;;;14.61;78.63;101059.69;4889663;29;20446;-73
2021/10/06 09:05:22;;;;;;;19.80;3.30;;;;;;;14.54;79.04;101055.28;4875763;28;20042;-69
2021/10/06 09:07:55;;;;;;;17.80;2.85;;;;;;;14.58;78.84;101063.16;4869701;29;20177;-69
2021/10/06 09:10:21;;;;;;;15.10;2.58;;;;;;;14.65;78.74;101069.28;4863985;29;20055;-71
2021/10/06 09:13:03;;;;;;;16.63;2.17;;;;;;;14.72;78.81;101072.78;4868644;29;20044;-72
2021/10/06 09:15:42;;;;;;;19.02;2.13;;;;;;;14.93;78.88;101088.53;4883095;29;20462;-71
2021/10/06 09:18:12;;;;;;;13.50;1.60;;;;;;;15.27;78.39;101087.59;4843044;29;20734;-72
2021/10/06 09:20:37;;;;;;;14.80;1.80;;;;;;;15.51;77.49;101096.28;4890458;29;20070;-70
2021/10/06 09:23:08;;;;;;;10.90;1.60;;;;;;;15.59;76.76;101098.03;4888358;28;20040;-71
2021/10/06 09:25:56;;;;;;;15.18;1.67;;;;;;;15.64;75.55;101101.53;4886040;29;20489;-71
2021/10/06 09:28:23;;;;;;;11.98;1.60;;;;;;;15.62;75.56;101105.91;4874360;28;20215;-71
2021/10/06 09:30:56;;;;;;;11.45;1.70;;;;;;;15.73;75.24;101122.53;4895199;29;20126;-72
2021/10/06 09:33:25;;;;;;;11.25;1.98;;;;;;;15.96;75.70;101127.69;4896948;29;20059;-71
2021/10/06 09:35:53;;;;;;;8.30;1.40;;;;;;;15.98;75.11;101133.78;4889006;28;20961;-72
2021/10/06 09:38:18;;;;;;;14.98;1.40;;;;;;;15.77;74.75;101129.50;4863921;29;20063;-71
2021/10/06 09:40:44;;;;;;;9.35;1.42;;;;;;;15.90;74.31;101132.97;4887144;28;20508;-71
2021/10/06 09:43:09;;;;;;;10.48;1.52;;;;;;;16.24;75.14;101138.94;4887101;29;20881;-70
2021/10/06 09:45:36;;;;;;;9.70;1.40;;;;;;;16.52;74.81;101135.25;4888218;28;20043;-71
2021/10/06 09:48:12;;;;;;;15.45;2.03;;;;;;;16.76;74.43;101139.50;4886213;29;20064;-71
2021/10/06 09:50:49;;;;;;;11.40;1.85;;;;;;;16.81;73.55;101152.63;4859979;29;20173;-71
2021/10/06 09:53:17;;;;;;;12.05;1.67;;;;;;;16.84;72.15;101147.31;4880937;28;20048;-72
2021/10/06 09:55:45;;;;;;;11.05;1.52;;;;;;;16.82;73.14;101150.00;4884285;29;20024;-70
2021/10/06 09:58:11;;;;;;;9.15;1.40;;;;;;;16.89;73.00;101159.59;4883265;28;20056;-71
2021/10/06 10:00:43;;;;;;;11.10;1.58;;;;;;;16.94;72.84;101156.91;4893291;29;20071;-71
2021/10/06 10:03:20;;;;;;;8.40;1.55;;;;;;;17.03;73.25;101160.34;4890132;28;20701;-70
2021/10/06 10:05:54;;;;;;;9.38;1.40;;;;;;;17.19;72.95;101173.38;4889300;29;21103;-69
2021/10/06 10:08:19;;;;;;;12.77;1.73;;;;;;;17.13;72.10;101171.69;4885744;29;20504;-71
2021/10/06 10:10:44;;;;;;;9.90;1.70;;;;;;;16.96;71.15;101184.09;4874050;28;20077;-70
2021/10/06 10:13:10;;;;;;;12.07;1.88;;;;;;;16.95;70.93;101180.63;4860688;29;20836;-71
2021/10/06 10:15:35;;;;;;;10.85;1.80;;;;;;;17.04;71.40;101190.19;4871870;29;20567;-71
2021/10/06 10:18:05;;;;;;;10.68;1.70;;;;;;;17.13;72.00;101194.53;4878923;29;20050;-69
2021/10/06 10:20:34;;;;;;;14.25;1.83;;;;;;;17.27;71.75;101193.50;4877773;28;20055;-70
2021/10/06 10:23:03;;;;;;;10.30;1.98;;;;;;;17.10;71.42;101221.75;4874703;29;20056;-71
2021/10/06 10:25:31;;;;;;;6.10;1.48;;;;;;;16.81;70.95;101236.88;4891687;29;20052;-69
2021/10/06 10:28:08;;;;;;;10.00;1.88;;;;;;;16.59;72.44;101230.81;4875202;29;20043;-70
2021/10/06 10:30:36;;;;;;;11.00;1.90;;;;;;;16.38;72.70;101233.59;4874284;29;20048;-70
2021/10/06 10:33:03;;;;;;;12.55;1.83;;;;;;;16.33;73.07;101232.72;4893567;29;20075;-70
2021/10/06 10:35:42;;;;;;;12.77;1.95;;;;;;;16.23;73.54;101250.28;4882687;29;20051;-70
2021/10/06 10:38:16;;;;;;;14.07;1.65;;;;;;;16.21;74.22;101255.59;4872210;29;20058;-70
2021/10/06 10:40:42;;;;;;;;;;;;;;;16.13;74.95;101260.00;4889458;29;20079;-68
2021/10/06 10:43:17;;;;;;;10.77;1.92;;;;;;;16.21;75.12;101263.47;4893596;28;19933;-70
2021/10/06 10:46:11;;;;;;;;;;;;;;;16.30;75.87;101272.19;4870582;29;20412;-70
2021/10/06 10:48:56;;;;;;;11.18;1.92;;;;;;;16.45;74.74;101269.50;4883501;29;20010;-70
2021/10/06 10:51:40;;;;;;;14.95;2.10;;;;;;;16.88;75.36;101278.09;4884539;29;20595;-70
2021/10/06 10:54:09;;;;;;;9.20;2.00;;;;;;;17.12;73.96;101279.69;4861095;29;20063;-71
2021/10/06 10:56:43;;;;;;;9.30;1.70;;;;;;;17.39;73.58;101280.34;4878705;28;20110;-69
2021/10/06 10:59:14;;;;;;;7.53;1.85;;;;;;;17.32;72.17;101277.81;4887945;29;20544;-69
2021/10/06 11:01:52;;;;;;;7.75;1.50;;;;;;;17.29;70.01;101286.59;4891270;29;20485;-70
2021/10/06 11:04:37;;;;;;;11.68;2.05;;;;;;;17.33;71.47;101298.84;4861117;29;20051;-70
2021/10/06 11:07:13;;;;;;;8.35;1.55;;;;;;;17.50;71.05;101305.78;4860613;29;20036;-71
2021/10/06 11:09:46;;;;;;;7.00;1.40;;;;;;;17.30;68.58;101316.47;4876051;28;20040;-69
2021/10/06 11:12:11;;;;;;;9.20;1.40;;;;;;;17.16;69.52;101318.31;4854507;29;20040;-71
2021/10/06 11:14:39;;;;;;;7.20;1.50;;;;;;;16.93;70.65;101318.44;4888169;28;20049;-70
2021/10/06 11:17:19;;;;;;;9.30;1.90;;;;;;;16.60;71.78;101328.25;4856516;29;20220;-70
2021/10/06 11:19:45;;;;;;;8.40;1.58;;;;;;;16.24;73.13;101333.59;4895719;29;20051;-71